Airfield :







YOU CAN JOIN US ON...

 
LOGIN :

Register | Disclaimer

   EN    FR    IT 

 









Legend :    VFR   Marginal VFR   IFR   Intensive IFR   Very Intensive IFR
Visi :
Ceiling :
>= 8 km
>= 3000ft
5 to 8 km
1000 to 3000 ft
1500m to 5 km
500 to 1000 ft
800 to 1500m
200 to 500 ft
< 800m
< 200 ft
Symbols :   Thunderstorms  Fog  Heavy snow  Heavy precipitations  Wind > 20 kt







- Airport Elevation : 1270 ft
- IATA code : YMT


CYMT - Chapais

CURRENT METAR :
  • 150718Z AUTO 27010G15KT 9SM OVC013 10/09 A2985 RMK SLP116

EXPIRED METARs :
  • 150622Z AUTO 26008KT 210V270 9SM -RA SCT009 BKN016 OVC037 10/10 A2984 RMK SLP113
  • 150616Z AUTO 24005KT 9SM BKN009 BKN014 OVC019 10/10 A2984 RMK SLP113
  • 150600Z AUTO 26005KT 9SM BKN013 BKN018 OVC033 10/10 A2984 RMK SLP112
  • 150554Z AUTO 26004KT 9SM SCT011 BKN016 OVC033 10/10 A2984 RMK SLP112
  • 150533Z AUTO 27005G15KT 9SM -RA SCT011 BKN016 BKN033 OVC044 10/10 A2984 RMK SLP112
  • 150514Z AUTO 26008G15KT 9SM -RA SCT012 BKN035 OVC060 11/10 A2983 RMK SLP111
  • 150456Z AUTO 25007KT 9SM -RA SCT009 SCT015 BKN035 OVC049 11/10 A2983 RMK SLP110
  • 150452Z AUTO 25007KT 9SM SCT009 BKN014 BKN035 OVC049 11/10 A2983 RMK SLP110
  • 150440Z AUTO 26008KT 9SM BKN009 BKN016 BKN042 OVC049 11/10 A2983 RMK SLP110
  • 150437Z AUTO 27005KT 9SM SCT006 BKN013 BKN021 OVC049 11/10 A2983 RMK SLP110

Expired Forecast.
No reported NOTAMs for that airfield.



MET'MAP, your aeronautical weather chart ! - Copyright ORBIFLY December 2007 - Disclaimer

ORBIFLY MET'MAP TEAM :

Programming & Development : Alexandra Zaïnal
Concept & Development : Baudouin d'Aumeries
Co-Development & Prog : Marc-Olivier Méhu
Technical & hardware support : Manuel Goepfert

Contact : metmap@orbifly.com




SOURCES & CREDITS :

   NOAA